Indialantic, Florida
Current Conditions -  °F | °C
As of 7:53 AM on Thursday 18 Dec 2014 (Local Time) from KMLB Reporting Station
Clear Clear  
Wind Chill: 47°   Ceiling: Unl
Heat Index: 49°   Visibility: 10mi
Dew Point: 47°   Wind: 6mph
Humidity: 93%   Direction: 280°W
Pressure: 30.15"   Gusts: NA
Location:  28.09°N, 80.57°W
Report Text: KMLB 181253Z 28005KT 10SM CLR 09/08 A3015 RMK AO2 SLP209 T00940083
Loading
Personal Weather Stations






























Interactive Weather Map New forecast layout! Learn more

10-Day Weather Forecast

Advertisements
Track Severe Weather on mobile